Time;durP1;ratioP1;P1;durP2;ratioP2;P2;SDS_P1;SDS_P2;PMS_P1;PMS_P2;Temp;Humidity;BMP_temperature;BMP_pressure;BME280_temperature;BME280_humidity;BME280_pressure;Samples;Min_cycle;Max_cycle;Signal;HPM_P1;HPM_P2
2023/06/30 00:01:50;;;;;;;10.90;5.15;;;15.10;99.90;;;;;;7365019;19;20479;-67
2023/06/30 00:04:22;;;;;;;11.10;4.25;;;15.10;99.90;;;;;;7368990;19;20030;-70
2023/06/30 00:06:51;;;;;;;10.57;4.93;;;15.00;99.90;;;;;;7377372;19;20037;-63
2023/06/30 00:09:22;;;;;;;12.75;4.57;;;15.00;99.90;;;;;;7374577;19;20023;-63
2023/06/30 00:11:52;;;;;;;12.18;3.83;;;15.00;99.90;;;;;;7369680;19;20025;-63
2023/06/30 00:14:21;;;;;;;11.23;4.53;;;14.90;99.90;;;;;;7373668;19;20021;-63
2023/06/30 00:16:49;;;;;;;11.77;4.55;;;14.90;99.90;;;;;;7378705;19;20015;-63
2023/06/30 00:19:17;;;;;;;11.57;4.68;;;14.80;99.90;;;;;;7371927;19;20424;-62
2023/06/30 00:21:43;;;;;;;9.48;3.90;;;14.80;99.90;;;;;;7375514;19;20023;-63
2023/06/30 00:24:10;;;;;;;13.80;5.03;;;14.70;99.90;;;;;;7371927;19;20359;-62
2023/06/30 00:26:37;;;;;;;12.55;4.20;;;14.70;99.90;;;;;;7377603;19;20558;-63
2023/06/30 00:29:04;;;;;;;7.80;4.13;;;14.60;99.90;;;;;;7372741;19;20031;-70
2023/06/30 00:31:31;;;;;;;11.98;4.57;;;14.50;99.90;;;;;;7373629;19;20462;-70
2023/06/30 00:33:58;;;;;;;12.73;4.18;;;14.50;99.90;;;;;;7374796;19;20107;-63
2023/06/30 00:36:24;;;;;;;9.43;4.15;;;14.50;99.90;;;;;;7375465;19;20038;-63
2023/06/30 00:38:58;;;;;;;11.20;4.25;;;14.40;99.90;;;;;;7374078;19;20014;-63
2023/06/30 00:41:24;;;;;;;17.92;5.05;;;14.40;99.90;;;;;;7373019;19;20014;-62
2023/06/30 00:43:51;;;;;;;10.07;4.15;;;14.40;99.90;;;;;;7375594;19;20028;-63
2023/06/30 00:46:18;;;;;;;13.00;4.32;;;14.30;99.90;;;;;;7376163;19;20026;-70
2023/06/30 00:48:49;;;;;;;8.85;4.18;;;14.30;99.90;;;;;;7368453;19;20019;-69
2023/06/30 00:51:15;;;;;;;11.55;4.30;;;14.20;99.90;;;;;;7371943;19;20415;-69
2023/06/30 00:53:41;;;;;;;13.25;5.00;;;14.20;99.90;;;;;;7372996;19;20492;-70
2023/06/30 00:56:08;;;;;;;12.18;4.57;;;14.20;99.90;;;;;;7375141;19;20015;-70
2023/06/30 00:58:34;;;;;;;13.38;4.32;;;14.20;99.90;;;;;;7371340;19;20099;-69
2023/06/30 01:01:10;;;;;;;12.45;5.40;;;14.20;99.90;;;;;;7374066;19;20074;-69
2023/06/30 01:03:42;;;;;;;12.95;5.20;;;14.20;99.90;;;;;;7373691;19;20022;-69
2023/06/30 01:06:16;;;;;;;9.48;4.65;;;14.10;99.90;;;;;;7378576;19;20275;-69
2023/06/30 01:09:04;;;;;;;10.43;4.68;;;14.10;99.90;;;;;;7373481;19;20019;-63
2023/06/30 01:11:33;;;;;;;12.23;4.88;;;14.10;99.90;;;;;;7374812;19;20469;-64
2023/06/30 01:14:01;;;;;;;11.77;4.68;;;14.10;99.90;;;;;;7376051;19;20512;-63
2023/06/30 01:16:29;;;;;;;13.10;4.72;;;14.00;99.90;;;;;;7371931;19;20042;-63
2023/06/30 01:18:58;;;;;;;16.52;4.75;;;14.00;99.90;;;;;;7373262;19;20405;-63
2023/06/30 01:21:28;;;;;;;15.65;5.35;;;14.00;99.90;;;;;;7372248;19;20378;-64
2023/06/30 01:24:02;;;;;;;15.32;4.63;;;14.00;99.90;;;;;;7372478;19;20383;-63
2023/06/30 01:26:33;;;;;;;8.60;4.32;;;13.90;99.90;;;;;;7375803;19;20492;-63
2023/06/30 01:29:04;;;;;;;13.68;4.88;;;13.90;99.90;;;;;;7373581;19;20686;-64
2023/06/30 01:31:31;;;;;;;17.52;4.60;;;13.90;99.90;;;;;;7373633;19;20103;-63
2023/06/30 01:34:02;;;;;;;12.25;4.40;;;13.90;99.90;;;;;;7375099;19;20045;-63
2023/06/30 01:36:28;;;;;;;11.13;4.50;;;13.80;99.90;;;;;;7372532;19;20030;-63
2023/06/30 01:38:55;;;;;;;12.95;4.30;;;13.80;99.90;;;;;;7365012;19;20294;-69
2023/06/30 01:41:22;;;;;;;9.93;4.28;;;13.70;99.90;;;;;;7370035;19;20018;-69
2023/06/30 01:43:50;;;;;;;8.90;4.10;;;13.70;99.90;;;;;;7372976;19;20015;-69
2023/06/30 01:46:17;;;;;;;12.40;4.47;;;13.70;99.90;;;;;;7370902;19;20036;-70
2023/06/30 01:48:44;;;;;;;11.25;4.32;;;13.70;99.90;;;;;;7370874;19;20775;-69
2023/06/30 01:51:14;;;;;;;16.55;5.25;;;13.60;99.90;;;;;;7372214;19;20035;-69
2023/06/30 01:53:40;;;;;;;14.18;4.70;;;13.60;99.90;;;;;;7371879;19;20492;-69
2023/06/30 01:56:07;;;;;;;12.23;5.10;;;13.50;99.90;;;;;;7370692;19;20045;-69
2023/06/30 01:58:33;;;;;;;10.35;4.72;;;13.50;99.90;;;;;;7369820;19;20501;-69
2023/06/30 02:00:59;;;;;;;13.55;4.25;;;13.50;99.90;;;;;;7367396;19;20022;-69
2023/06/30 02:03:25;;;;;;;8.43;4.18;;;13.50;99.90;;;;;;7370262;19;20437;-69
2023/06/30 02:05:52;;;;;;;12.10;4.85;;;13.40;99.90;;;;;;7368838;19;20389;-70
2023/06/30 02:08:19;;;;;;;13.52;4.85;;;13.40;99.90;;;;;;7369650;19;20492;-70
2023/06/30 02:10:46;;;;;;;9.50;4.28;;;13.40;99.90;;;;;;7370076;19;20511;-63
2023/06/30 02:13:13;;;;;;;10.65;4.13;;;13.30;99.90;;;;;;7371142;19;20377;-64
2023/06/30 02:15:39;;;;;;;11.10;4.20;;;13.20;99.90;;;;;;7370195;19;20026;-70
2023/06/30 02:18:05;;;;;;;9.95;4.68;;;13.10;99.90;;;;;;7372921;19;20445;-64
2023/06/30 02:20:32;;;;;;;9.70;4.65;;;13.00;99.90;;;;;;7370273;19;20014;-70
2023/06/30 02:22:58;;;;;;;11.57;4.32;;;13.00;99.90;;;;;;7373906;19;20087;-71
2023/06/30 02:25:25;;;;;;;10.07;5.00;;;13.00;99.90;;;;;;7368660;19;20382;-71
2023/06/30 02:27:53;;;;;;;15.68;5.07;;;12.90;99.90;;;;;;7372356;19;20369;-71
2023/06/30 02:30:20;;;;;;;11.80;4.63;;;12.90;99.90;;;;;;7365798;19;20030;-71
2023/06/30 02:32:46;;;;;;;12.10;4.53;;;12.80;99.90;;;;;;7369646;19;20042;-71
2023/06/30 02:35:13;;;;;;;11.20;4.80;;;12.70;99.90;;;;;;7371693;19;20010;-71
2023/06/30 02:37:39;;;;;;;12.13;4.70;;;12.60;99.90;;;;;;7373672;19;20033;-71
2023/06/30 02:40:07;;;;;;;8.02;4.55;;;12.60;99.90;;;;;;7369639;19;21503;-70
2023/06/30 02:42:33;;;;;;;9.10;4.53;;;12.60;99.90;;;;;;7362386;19;20079;-70
2023/06/30 02:44:59;;;;;;;8.07;5.05;;;12.50;99.90;;;;;;7370867;19;20022;-70
2023/06/30 02:47:27;;;;;;;10.32;4.90;;;12.50;99.90;;;;;;7368743;19;20019;-69
2023/06/30 02:49:53;;;;;;;8.80;4.93;;;12.50;99.90;;;;;;7369804;19;20022;-70
2023/06/30 02:52:19;;;;;;;13.95;5.10;;;12.40;99.90;;;;;;7372088;19;20946;-70
2023/06/30 02:54:45;;;;;;;10.25;5.03;;;12.30;99.90;;;;;;7372181;19;20426;-70
2023/06/30 02:57:12;;;;;;;11.40;4.68;;;12.30;99.90;;;;;;7368587;19;20346;-70
2023/06/30 02:59:39;;;;;;;8.82;4.38;;;12.20;99.90;;;;;;7373211;19;20026;-70
2023/06/30 03:02:06;;;;;;;6.32;4.10;;;12.10;99.90;;;;;;7370218;19;20022;-70
2023/06/30 03:04:35;;;;;;;8.48;4.32;;;12.00;99.90;;;;;;7371135;19;20561;-70
2023/06/30 03:07:02;;;;;;;9.68;3.83;;;11.90;99.90;;;;;;7369995;19;20382;-70
2023/06/30 03:09:28;;;;;;;9.27;4.45;;;11.80;99.90;;;;;;7370761;19;20056;-70
2023/06/30 03:11:55;;;;;;;11.70;4.85;;;11.70;99.90;;;;;;7370165;19;20025;-70
2023/06/30 03:14:23;;;;;;;9.75;4.32;;;11.70;99.90;;;;;;7367753;19;20029;-70
2023/06/30 03:16:50;;;;;;;8.32;4.10;;;11.60;99.90;;;;;;7370114;19;20396;-71
2023/06/30 03:19:19;;;;;;;8.45;3.80;;;11.50;99.90;;;;;;7368672;19;20022;-71
2023/06/30 03:21:45;;;;;;;8.25;4.38;;;11.50;99.90;;;;;;7368969;19;20494;-71
2023/06/30 03:24:12;;;;;;;8.32;4.55;;;11.40;99.90;;;;;;7368332;19;20018;-71
2023/06/30 03:26:38;;;;;;;10.00;4.80;;;11.30;99.90;;;;;;7370301;19;20493;-73
2023/06/30 03:29:12;;;;;;;8.27;4.78;;;11.40;99.90;;;;;;7368055;19;21350;-71
2023/06/30 03:31:38;;;;;;;10.30;5.35;;;11.30;99.90;;;;;;7371967;19;20014;-71
2023/06/30 03:34:04;;;;;;;9.32;4.70;;;11.30;99.90;;;;;;7368276;19;20014;-72
2023/06/30 03:36:30;;;;;;;14.73;6.03;;;11.30;99.90;;;;;;7368493;19;20366;-72
2023/06/30 03:38:57;;;;;;;10.85;4.97;;;11.30;99.90;;;;;;7370465;19;20014;-71
2023/06/30 03:41:23;;;;;;;13.60;5.55;;;11.30;99.90;;;;;;7367482;19;20576;-71
2023/06/30 03:43:49;;;;;;;8.98;5.57;;;11.40;99.90;;;;;;7371696;19;20022;-72
2023/06/30 03:46:15;;;;;;;8.90;5.72;;;11.30;99.90;;;;;;7365116;19;20033;-71
2023/06/30 03:48:42;;;;;;;13.20;5.32;;;11.30;99.90;;;;;;7368477;19;20018;-71
2023/06/30 03:51:09;;;;;;;11.10;5.13;;;11.40;99.90;;;;;;7367605;19;20018;-71
2023/06/30 03:53:35;;;;;;;12.90;5.55;;;11.40;99.90;;;;;;7369721;19;20472;-71
2023/06/30 03:56:03;;;;;;;7.53;4.60;;;11.40;99.90;;;;;;7367936;19;20508;-70
2023/06/30 03:58:31;;;;;;;10.07;4.75;;;11.30;99.90;;;;;;7370045;19;20481;-70
2023/06/30 04:00:57;;;;;;;11.00;5.43;;;11.40;99.90;;;;;;7372314;19;20018;-69
2023/06/30 04:03:23;;;;;;;11.43;5.50;;;11.40;99.90;;;;;;7367579;19;20133;-70
2023/06/30 04:05:49;;;;;;;10.02;5.78;;;11.40;99.90;;;;;;7368687;19;20015;-70
2023/06/30 04:08:15;;;;;;;11.90;5.65;;;11.40;99.90;;;;;;7368469;19;20513;-70
2023/06/30 04:10:42;;;;;;;9.52;5.85;;;11.50;99.90;;;;;;7373104;19;20023;-70
2023/06/30 04:13:09;;;;;;;12.65;5.25;;;11.50;99.90;;;;;;7369414;19;20291;-70
2023/06/30 04:15:36;;;;;;;10.73;5.57;;;11.50;99.90;;;;;;7369238;19;20045;-70
2023/06/30 04:18:03;;;;;;;13.23;5.55;;;11.50;99.90;;;;;;7365587;19;20015;-70
2023/06/30 04:20:29;;;;;;;7.50;5.32;;;11.50;99.90;;;;;;7369570;19;20019;-70
2023/06/30 04:22:55;;;;;;;10.18;5.57;;;11.50;99.90;;;;;;7366396;19;20024;-70
2023/06/30 04:25:22;;;;;;;11.02;5.50;;;11.50;99.90;;;;;;7366802;19;20011;-70
2023/06/30 04:27:48;;;;;;;11.70;5.18;;;11.50;99.90;;;;;;7370443;19;20022;-71
2023/06/30 04:30:15;;;;;;;13.20;6.00;;;11.60;99.90;;;;;;7366565;19;20105;-70
2023/06/30 04:32:41;;;;;;;11.15;5.90;;;11.60;99.90;;;;;;7369499;19;20410;-70
2023/06/30 04:35:08;;;;;;;8.32;5.55;;;11.60;99.90;;;;;;7368880;19;20639;-70
2023/06/30 04:37:40;;;;;;;12.18;6.15;;;11.70;99.90;;;;;;7364892;19;20018;-62
2023/06/30 04:40:09;;;;;;;;;;;11.70;99.90;;;;;;7367672;19;20385;-70
2023/06/30 04:42:39;;;;;;;9.95;5.57;;;11.80;99.90;;;;;;7368539;19;20021;-70
2023/06/30 04:45:06;;;;;;;13.43;5.85;;;11.80;99.90;;;;;;7367405;19;20513;-70
2023/06/30 04:47:32;;;;;;;13.82;5.40;;;11.90;99.90;;;;;;7362747;19;20018;-70
2023/06/30 04:49:58;;;;;;;8.52;5.20;;;11.90;99.90;;;;;;7364810;19;20045;-71
2023/06/30 04:52:24;;;;;;;14.68;6.20;;;12.00;99.90;;;;;;7368088;19;20026;-71
2023/06/30 04:54:51;;;;;;;14.88;5.80;;;12.10;99.90;;;;;;7371791;19;20022;-72
2023/06/30 04:57:17;;;;;;;8.23;5.25;;;12.20;99.90;;;;;;7373466;19;20015;-71
2023/06/30 04:59:44;;;;;;;8.93;5.32;;;12.30;99.90;;;;;;7375696;19;20561;-71
2023/06/30 05:02:10;;;;;;;10.77;5.65;;;12.40;99.90;;;;;;7375001;19;20034;-71
2023/06/30 05:04:40;;;;;;;13.40;5.90;;;12.50;99.90;;;;;;7374891;19;20018;-72
2023/06/30 05:07:06;;;;;;;12.35;5.75;;;12.70;99.90;;;;;;7371334;19;20075;-71
2023/06/30 05:09:32;;;;;;;10.45;4.90;;;12.80;99.90;;;;;;7374880;19;20025;-70
2023/06/30 05:11:58;;;;;;;13.40;5.15;;;13.00;99.90;;;;;;7372487;19;20300;-72
2023/06/30 05:14:25;;;;;;;10.73;4.68;;;13.50;99.90;;;;;;7368783;19;20015;-71
2023/06/30 05:16:52;;;;;;;10.57;4.30;;;13.90;99.90;;;;;;7373076;19;20018;-69
2023/06/30 05:19:21;;;;;;;8.30;3.85;;;14.30;99.90;;;;;;7373673;19;20041;-71
2023/06/30 05:21:51;;;;;;;8.75;3.63;;;14.60;99.90;;;;;;7373454;19;20019;-72
2023/06/30 05:24:17;;;;;;;9.30;3.50;;;14.90;99.90;;;;;;7373322;19;20047;-71
2023/06/30 05:26:43;;;;;;;5.78;3.08;;;15.20;99.90;;;;;;7372427;19;20109;-72
2023/06/30 05:29:09;;;;;;;8.40;2.63;;;15.50;99.90;;;;;;7373624;19;20018;-72
2023/06/30 05:31:36;;;;;;;9.05;2.67;;;15.80;99.90;;;;;;7370793;19;20607;-71
2023/06/30 05:34:02;;;;;;;7.35;2.55;;;15.90;99.90;;;;;;7372889;19;20019;-71
2023/06/30 05:36:31;;;;;;;11.02;2.97;;;16.10;99.90;;;;;;7371739;19;20018;-71
2023/06/30 05:38:57;;;;;;;8.35;2.80;;;16.40;99.90;;;;;;7373133;19;20033;-72
2023/06/30 05:41:24;;;;;;;19.77;15.43;;;16.60;99.90;;;;;;7371338;19;20060;-68
2023/06/30 05:43:50;;;;;;;35.08;29.02;;;16.90;99.90;;;;;;7374800;19;20014;-67
2023/06/30 05:46:16;;;;;;;14.65;7.43;;;17.20;99.90;;;;;;7373579;19;20472;-67
2023/06/30 05:48:42;;;;;;;7.00;3.03;;;17.40;99.90;;;;;;7371474;19;20042;-67
2023/06/30 05:51:08;;;;;;;9.43;3.05;;;17.60;99.90;;;;;;7371328;19;20057;-66
2023/06/30 05:53:35;;;;;;;23.05;18.38;;;17.70;99.90;;;;;;7372987;19;20051;-67
2023/06/30 05:56:01;;;;;;;6.90;2.58;;;17.90;99.90;;;;;;7374210;19;20022;-67
2023/06/30 05:58:27;;;;;;;6.75;3.15;;;18.10;99.90;;;;;;7372457;19;20042;-67
2023/06/30 06:00:53;;;;;;;17.33;14.20;;;18.30;99.90;;;;;;7374089;19;20357;-67
2023/06/30 06:03:19;;;;;;;11.00;4.70;;;18.40;99.90;;;;;;7374059;19;21439;-67
2023/06/30 06:05:45;;;;;;;6.18;2.63;;;18.50;99.90;;;;;;7373052;19;20632;-67
2023/06/30 06:08:12;;;;;;;10.40;4.68;;;18.70;99.90;;;;;;7372341;19;20484;-67
2023/06/30 06:10:38;;;;;;;8.15;2.58;;;18.60;99.90;;;;;;7371063;19;20014;-67
2023/06/30 06:13:04;;;;;;;10.43;2.35;;;18.50;99.90;;;;;;7376504;19;20520;-67
2023/06/30 06:15:30;;;;;;;11.13;2.72;;;18.10;99.90;;;;;;7372795;19;20095;-67
2023/06/30 06:17:57;;;;;;;7.78;2.92;;;17.80;99.90;;;;;;7373512;19;20559;-67
2023/06/30 06:20:24;;;;;;;33.65;27.23;;;17.80;99.90;;;;;;7369675;19;20120;-67
2023/06/30 06:22:50;;;;;;;9.13;2.38;;;17.80;99.90;;;;;;7369582;19;20055;-67
2023/06/30 06:25:16;;;;;;;12.00;6.95;;;17.80;99.90;;;;;;7372241;19;20567;-67
2023/06/30 06:27:42;;;;;;;13.63;9.10;;;17.90;99.90;;;;;;7371593;19;20022;-66
2023/06/30 06:30:09;;;;;;;6.22;1.92;;;18.30;99.90;;;;;;7373379;19;20022;-67
2023/06/30 06:32:35;;;;;;;7.35;1.90;;;18.70;99.90;;;;;;7374426;19;20602;-67
2023/06/30 06:35:01;;;;;;;8.85;1.80;;;18.80;99.90;;;;;;7371689;19;20489;-68
2023/06/30 06:37:28;;;;;;;6.60;3.20;;;18.80;99.90;;;;;;7376305;19;20029;-62
2023/06/30 06:39:54;;;;;;;9.40;1.75;;;18.60;99.90;;;;;;7374295;19;20022;-69
2023/06/30 06:42:20;;;;;;;4.13;1.40;;;18.90;99.90;;;;;;7375293;19;20022;-62
2023/06/30 06:44:51;;;;;;;8.20;2.17;;;18.90;99.90;;;;;;7368727;19;20084;-62
2023/06/30 06:47:54;;;;;;;6.88;1.70;;;19.30;99.90;;;;;;7371140;19;20014;-69
2023/06/30 06:50:21;;;;;;;6.78;1.85;;;19.20;99.90;;;;;;7371627;19;20027;-70
2023/06/30 06:52:47;;;;;;;20.02;15.73;;;19.40;99.90;;;;;;7373180;19;20019;-70
2023/06/30 06:55:13;;;;;;;52.92;47.28;;;19.50;99.90;;;;;;7377463;19;20027;-61
2023/06/30 06:57:40;;;;;;;7.05;1.70;;;19.70;99.90;;;;;;7371809;19;20023;-61
2023/06/30 07:00:06;;;;;;;5.68;1.40;;;20.00;99.90;;;;;;7373853;19;20028;-61
2023/06/30 07:02:32;;;;;;;7.70;3.05;;;20.20;99.90;;;;;;7368720;19;20044;-62
2023/06/30 07:05:00;;;;;;;11.10;4.78;;;20.30;99.90;;;;;;7377656;19;20049;-65
2023/06/30 07:07:27;;;;;;;5.53;1.92;;;20.40;99.90;;;;;;7384252;19;20047;-65
2023/06/30 07:09:53;;;;;;;10.00;2.15;;;20.30;99.90;;;;;;7382737;19;20018;-64
2023/06/30 07:12:19;;;;;;;113.28;102.32;;;20.60;99.90;;;;;;7379148;19;20086;-65
2023/06/30 07:14:46;;;;;;;7.40;1.92;;;20.70;99.90;;;;;;7380968;19;20797;-65
2023/06/30 07:17:12;;;;;;;6.32;1.85;;;20.70;99.90;;;;;;7379994;19;20014;-65
2023/06/30 07:19:39;;;;;;;9.02;4.85;;;20.80;99.90;;;;;;7374323;19;20787;-61
2023/06/30 07:22:05;;;;;;;4.88;1.83;;;20.80;99.90;;;;;;7374291;19;20110;-65
2023/06/30 07:24:31;;;;;;;8.65;2.72;;;20.60;99.90;;;;;;7372484;19;20595;-65
2023/06/30 07:26:58;;;;;;;7.57;1.92;;;20.80;99.90;;;;;;7370960;19;20015;-66
2023/06/30 07:29:25;;;;;;;5.50;1.48;;;20.90;99.90;;;;;;7377298;19;20086;-65
2023/06/30 07:31:51;;;;;;;7.70;1.67;;;20.50;99.90;;;;;;7375281;19;20011;-63
2023/06/30 07:34:19;;;;;;;4.97;1.58;;;20.50;99.90;;;;;;7379354;19;20010;-65
2023/06/30 07:36:48;;;;;;;7.18;2.05;;;20.40;99.90;;;;;;7375807;19;20015;-63
2023/06/30 07:39:15;;;;;;;8.73;4.25;;;20.80;99.90;;;;;;7376806;19;20615;-66
2023/06/30 07:41:41;;;;;;;7.03;1.33;;;20.70;99.90;;;;;;7370404;19;20022;-68
2023/06/30 07:44:09;;;;;;;6.45;1.48;;;20.50;99.90;;;;;;7364259;19;20014;-67
2023/06/30 07:46:35;;;;;;;5.28;1.30;;;20.60;99.90;;;;;;7367931;19;20022;-68
2023/06/30 07:49:01;;;;;;;3.63;1.02;;;20.70;99.90;;;;;;7366019;19;20053;-68
2023/06/30 07:51:29;;;;;;;5.47;1.77;;;20.90;99.90;;;;;;7371396;19;20010;-68
2023/06/30 07:53:55;;;;;;;5.07;1.17;;;21.10;99.90;;;;;;7370574;19;20018;-67
2023/06/30 07:56:22;;;;;;;2.72;0.93;;;21.10;99.90;;;;;;7370248;19;20014;-67
2023/06/30 07:58:51;;;;;;;4.80;1.27;;;21.40;99.90;;;;;;7371856;19;20014;-67
2023/06/30 08:01:17;;;;;;;5.20;1.38;;;21.80;99.90;;;;;;7371284;19;20477;-68
2023/06/30 08:03:43;;;;;;;6.50;1.40;;;21.40;99.90;;;;;;7374479;19;20386;-67
2023/06/30 08:06:10;;;;;;;7.10;1.40;;;21.60;99.90;;;;;;7369307;19;20369;-67
2023/06/30 08:08:36;;;;;;;4.93;1.20;;;22.00;99.90;;;;;;7368397;19;20055;-67
2023/06/30 08:11:02;;;;;;;3.80;1.00;;;21.60;99.90;;;;;;7368986;19;20015;-67
2023/06/30 08:13:28;;;;;;;4.45;1.00;;;21.60;99.90;;;;;;7372630;19;20014;-67
2023/06/30 08:15:55;;;;;;;8.05;1.52;;;22.10;99.90;;;;;;7368112;19;20031;-68
2023/06/30 08:18:21;;;;;;;5.90;1.35;;;22.20;99.90;;;;;;7370802;19;20027;-67
2023/06/30 08:20:51;;;;;;;5.38;1.25;;;21.90;99.90;;;;;;7369973;19;20028;-67
2023/06/30 08:23:18;;;;;;;3.53;0.95;;;21.30;99.90;;;;;;7372844;19;20026;-67
2023/06/30 08:25:44;;;;;;;3.92;1.20;;;21.20;99.90;;;;;;7366280;19;20665;-67
2023/06/30 08:28:14;;;;;;;4.28;1.00;;;21.50;99.90;;;;;;7378268;19;20025;-67
2023/06/30 08:30:40;;;;;;;4.63;1.40;;;21.60;99.90;;;;;;7375716;19;20036;-67
2023/06/30 08:33:06;;;;;;;3.90;1.20;;;22.00;99.90;;;;;;7379711;19;20375;-67
2023/06/30 08:35:33;;;;;;;5.07;0.90;;;22.50;99.90;;;;;;7373276;19;21437;-67
2023/06/30 08:37:59;;;;;;;4.70;1.10;;;23.00;99.30;;;;;;7373819;19;20026;-67
2023/06/30 08:40:26;;;;;;;3.78;1.08;;;23.30;97.60;;;;;;7377534;19;20381;-67
2023/06/30 08:42:55;;;;;;;3.88;1.17;;;23.30;95.40;;;;;;7378307;19;20411;-66
2023/06/30 08:45:28;;;;;;;2.75;0.90;;;23.40;94.50;;;;;;7376944;19;20023;-67
2023/06/30 08:48:06;;;;;;;4.25;1.13;;;23.40;92.40;;;;;;7374324;19;20023;-66
2023/06/30 08:50:33;;;;;;;4.03;1.27;;;23.40;92.00;;;;;;7374226;19;20039;-66
2023/06/30 08:53:00;;;;;;;5.50;1.00;;;23.50;93.40;;;;;;7377069;19;20498;-67
2023/06/30 08:55:27;;;;;;;5.18;0.95;;;23.80;92.50;;;;;;7372912;19;20022;-67
2023/06/30 08:57:57;;;;;;;2.05;0.80;;;24.20;91.60;;;;;;7372543;19;20015;-65
2023/06/30 09:00:24;;;;;;;4.18;1.00;;;23.60;89.70;;;;;;7376656;19;20018;-66
2023/06/30 09:02:58;;;;;;;5.30;1.40;;;23.50;90.50;;;;;;7377618;19;20025;-66
2023/06/30 09:05:26;;;;;;;3.28;1.27;;;22.70;90.10;;;;;;7377973;19;20600;-67
2023/06/30 09:07:57;;;;;;;4.65;1.25;;;22.40;91.60;;;;;;7374147;19;20053;-65
2023/06/30 09:10:27;;;;;;;4.43;1.20;;;22.60;92.80;;;;;;7368856;19;20026;-63
2023/06/30 09:12:54;;;;;;;9.80;1.50;;;23.10;92.80;;;;;;7374906;19;20033;-62
2023/06/30 09:15:22;;;;;;;5.60;1.40;;;23.40;92.20;;;;;;7375974;19;21024;-65
2023/06/30 09:17:52;;;;;;;4.72;1.10;;;23.90;92.00;;;;;;7375681;19;20018;-64
2023/06/30 09:20:22;;;;;;;3.20;0.93;;;24.30;90.30;;;;;;7374251;19;20014;-64
2023/06/30 09:22:49;;;;;;;3.87;1.10;;;23.60;80.70;;;;;;7374814;19;20335;-64
2023/06/30 09:25:25;;;;;;;7.63;4.35;;;23.90;84.10;;;;;;7376601;19;20018;-64
2023/06/30 09:27:52;;;;;;;3.05;0.70;;;24.80;78.80;;;;;;7368062;19;20365;-64
2023/06/30 09:30:30;;;;;;;2.67;0.70;;;24.70;75.80;;;;;;7371632;19;20018;-63
2023/06/30 09:32:56;;;;;;;2.78;0.80;;;24.10;74.50;;;;;;7373096;19;20714;-63
2023/06/30 09:35:23;;;;;;;2.60;0.80;;;24.00;75.70;;;;;;7375387;19;20026;-62
2023/06/30 09:37:53;;;;;;;2.88;1.00;;;24.30;74.30;;;;;;7375132;19;20026;-65
2023/06/30 09:40:24;;;;;;;3.15;1.42;;;24.80;73.50;;;;;;7376404;19;20424;-64
2023/06/30 09:42:54;;;;;;;3.28;1.13;;;25.20;72.80;;;;;;7377251;19;20018;-65
2023/06/30 09:45:20;;;;;;;5.30;1.10;;;25.20;72.60;;;;;;7373896;19;20042;-64
2023/06/30 09:47:53;;;;;;;4.13;1.25;;;25.20;70.00;;;;;;7371720;19;20014;-65
2023/06/30 09:50:27;;;;;;;6.75;1.10;;;24.40;68.80;;;;;;7376556;19;20022;-65
2023/06/30 09:52:53;;;;;;;5.20;1.05;;;24.00;70.40;;;;;;7373991;19;20022;-68
2023/06/30 09:55:20;;;;;;;3.15;0.75;;;24.40;72.00;;;;;;7377182;19;20392;-65
2023/06/30 09:57:46;;;;;;;4.72;0.95;;;24.50;70.60;;;;;;7373071;19;20477;-65
2023/06/30 10:00:13;;;;;;;3.20;1.02;;;24.90;67.10;;;;;;7374020;19;20025;-65
2023/06/30 10:02:40;;;;;;;4.28;0.95;;;25.10;68.20;;;;;;7371515;19;20018;-65
2023/06/30 10:05:10;;;;;;;3.83;0.75;;;25.70;66.70;;;;;;7375296;19;20035;-65
2023/06/30 10:07:42;;;;;;;3.28;1.00;;;26.10;66.30;;;;;;7376746;19;20658;-66
2023/06/30 10:10:11;;;;;;;3.85;1.10;;;25.80;63.80;;;;;;7374075;19;20014;-68
2023/06/30 10:12:42;;;;;;;6.82;1.52;;;25.40;63.40;;;;;;7373757;19;20015;-67
2023/06/30 10:15:10;;;;;;;3.42;0.77;;;25.20;64.40;;;;;;7371919;19;20046;-67
2023/06/30 10:17:39;;;;;;;6.57;3.80;;;25.10;62.90;;;;;;7371624;19;20019;-67
2023/06/30 10:20:08;;;;;;;4.03;1.23;;;25.50;63.10;;;;;;7374687;19;20492;-67
2023/06/30 10:22:37;;;;;;;5.15;0.93;;;25.60;61.80;;;;;;7375009;19;20018;-67
2023/06/30 10:25:07;;;;;;;3.72;0.80;;;25.90;61.40;;;;;;7374348;19;20030;-67
2023/06/30 10:27:35;;;;;;;4.50;1.10;;;26.10;60.10;;;;;;7371667;19;20030;-68
2023/06/30 10:30:02;;;;;;;4.10;1.30;;;26.50;60.00;;;;;;7374440;19;20017;-69
2023/06/30 10:32:28;;;;;;;3.20;1.10;;;27.00;59.20;;;;;;7373645;19;20174;-69
2023/06/30 10:34:56;;;;;;;6.10;1.23;;;27.40;61.00;;;;;;7373346;19;20014;-69
2023/06/30 10:37:22;;;;;;;8.75;4.30;;;26.80;59.70;;;;;;7370625;19;20019;-67
2023/06/30 10:39:49;;;;;;;3.50;0.80;;;26.90;61.20;;;;;;7376232;19;20425;-68
2023/06/30 10:42:17;;;;;;;3.45;0.80;;;26.20;53.70;;;;;;7372264;19;20051;-66
2023/06/30 10:44:49;;;;;;;4.75;0.88;;;26.40;53.50;;;;;;7372669;19;20034;-66
2023/06/30 10:47:22;;;;;;;3.83;1.10;;;26.20;54.40;;;;;;7368569;19;20481;-66
2023/06/30 10:49:53;;;;;;;4.60;1.80;;;25.90;55.70;;;;;;7370644;19;20018;-66
2023/06/30 10:52:29;;;;;;;5.72;1.20;;;25.80;56.60;;;;;;7371470;19;20010;-66
2023/06/30 10:55:04;;;;;;;3.70;1.15;;;25.70;56.00;;;;;;7371108;19;20030;-66
2023/06/30 10:57:36;;;;;;;4.10;1.10;;;24.90;56.70;;;;;;7372233;19;20509;-67
2023/06/30 11:00:05;;;;;;;3.60;0.90;;;24.70;57.70;;;;;;7375976;19;20015;-65
2023/06/30 11:02:37;;;;;;;4.25;1.02;;;24.60;58.40;;;;;;7372198;19;20014;-66
2023/06/30 11:05:22;;;;;;;1.73;0.80;;;24.50;59.00;;;;;;7374905;19;20027;-65
2023/06/30 11:08:09;;;;;;;3.92;1.42;;;24.80;58.80;;;;;;7369683;19;20022;-65
2023/06/30 11:10:37;;;;;;;5.80;1.70;;;25.30;57.40;;;;;;7373889;19;20613;-62
2023/06/30 11:13:05;;;;;;;8.15;1.40;;;25.20;57.10;;;;;;7373546;19;20026;-62
2023/06/30 11:15:44;;;;;;;4.07;1.10;;;24.80;58.30;;;;;;7373190;19;20022;-63
2023/06/30 11:18:21;;;;;;;3.22;1.00;;;24.40;58.70;;;;;;7372132;19;20023;-62
2023/06/30 11:20:58;;;;;;;4.88;1.10;;;24.30;59.50;;;;;;7373247;19;20030;-63
2023/06/30 11:23:29;;;;;;;14.32;9.50;;;24.20;60.10;;;;;;7369084;19;20018;-63
2023/06/30 11:25:57;;;;;;;16.48;11.73;;;24.30;60.80;;;;;;7363669;19;20491;-63
2023/06/30 11:28:25;;;;;;;8.82;5.95;;;24.40;60.50;;;;;;7368281;19;20022;-63
2023/06/30 11:30:52;;;;;;;9.25;5.72;;;25.30;60.00;;;;;;7367848;19;20018;-63
2023/06/30 11:33:18;;;;;;;4.35;2.97;;;25.80;59.00;;;;;;7366478;19;20022;-62
2023/06/30 11:35:50;;;;;;;5.85;1.75;;;25.80;57.10;;;;;;7369234;19;20917;-62
2023/06/30 11:38:17;;;;;;;4.72;1.08;;;26.40;55.90;;;;;;7368963;19;20501;-62
2023/06/30 11:40:48;;;;;;;7.00;2.15;;;26.60;55.00;;;;;;7371170;19;20031;-59
2023/06/30 11:43:21;;;;;;;4.22;1.63;;;26.70;53.30;;;;;;7372983;19;20595;-60
2023/06/30 11:45:58;;;;;;;5.15;1.40;;;26.60;52.50;;;;;;7370093;19;20018;-61
2023/06/30 11:48:24;;;;;;;7.38;3.92;;;26.20;50.90;;;;;;7364751;19;20050;-64
2023/06/30 11:50:50;;;;;;;3.42;1.13;;;26.00;52.90;;;;;;7359478;19;20022;-67
2023/06/30 11:53:17;;;;;;;4.85;1.75;;;25.50;53.30;;;;;;7366000;19;21131;-66
2023/06/30 11:55:44;;;;;;;4.97;1.40;;;26.30;54.30;;;;;;7362603;19;20631;-66
2023/06/30 11:58:10;;;;;;;3.50;1.10;;;26.60;53.30;;;;;;7369174;19;20026;-66
2023/06/30 12:00:41;;;;;;;3.40;1.42;;;26.80;52.40;;;;;;7368054;19;20049;-66
2023/06/30 12:03:07;;;;;;;3.88;1.60;;;26.60;50.40;;;;;;7371462;19;20023;-66
2023/06/30 12:05:39;;;;;;;5.32;1.55;;;27.10;50.70;;;;;;7373069;19;20035;-66
2023/06/30 12:08:06;;;;;;;3.80;1.23;;;27.40;50.80;;;;;;7368751;19;20600;-67
2023/06/30 12:10:37;;;;;;;3.00;1.27;;;27.50;50.00;;;;;;7369359;19;20015;-67
2023/06/30 12:13:08;;;;;;;4.53;1.33;;;27.80;49.60;;;;;;7370301;19;20022;-66
2023/06/30 12:15:36;;;;;;;4.25;1.58;;;27.50;49.20;;;;;;7368568;19;20481;-66
2023/06/30 12:18:06;;;;;;;6.35;1.27;;;27.60;48.70;;;;;;7370314;19;20022;-67
2023/06/30 12:20:35;;;;;;;4.25;1.30;;;27.60;48.50;;;;;;7371682;19;20014;-66
2023/06/30 12:23:03;;;;;;;4.57;1.60;;;27.50;48.60;;;;;;7372020;19;20026;-66
2023/06/30 12:25:34;;;;;;;3.92;1.50;;;27.70;48.80;;;;;;7371582;19;20039;-67
2023/06/30 12:28:05;;;;;;;4.97;1.20;;;27.70;49.20;;;;;;7372058;19;20365;-66
2023/06/30 12:30:32;;;;;;;4.85;1.27;;;27.10;49.60;;;;;;7368105;19;20449;-66
2023/06/30 12:32:59;;;;;;;4.32;1.27;;;27.30;50.00;;;;;;7374138;19;20011;-67
2023/06/30 12:35:30;;;;;;;5.90;1.38;;;26.90;50.20;;;;;;7372016;19;20030;-63
2023/06/30 12:37:56;;;;;;;;;;;27.00;50.60;;;;;;7370942;19;20018;-63
2023/06/30 12:40:24;;;;;;;3.80;1.35;;;27.20;50.70;;;;;;7372787;19;20346;-64
2023/06/30 12:42:52;;;;;;;3.97;1.65;;;27.50;50.50;;;;;;7371403;19;20055;-64
2023/06/30 12:45:19;;;;;;;4.60;1.48;;;27.70;50.20;;;;;;7371123;19;20025;-64
2023/06/30 12:47:45;;;;;;;4.13;1.35;;;27.70;50.10;;;;;;7372724;19;20078;-64